sensor_id;sensor_type;location;lat;lon;timestamp;P1;durP1;ratioP1;P2;durP2;ratioP2
66521;SDS011;53349;53.538;8.584;2024-03-25T00:01:31;6.27;;;1.07;;
66521;SDS011;53349;53.538;8.584;2024-03-25T00:03:56;4.80;;;0.75;;
66521;SDS011;53349;53.538;8.584;2024-03-25T00:06:22;6.13;;;1.00;;
66521;SDS011;53349;53.538;8.584;2024-03-25T00:08:47;5.37;;;0.70;;
66521;SDS011;53349;53.538;8.584;2024-03-25T00:11:12;6.43;;;0.80;;
66521;SDS011;53349;53.538;8.584;2024-03-25T00:13:38;4.30;;;0.60;;
66521;SDS011;53349;53.538;8.584;2024-03-25T00:16:03;5.30;;;0.80;;
66521;SDS011;53349;53.538;8.584;2024-03-25T00:18:29;4.10;;;0.50;;
66521;SDS011;53349;53.538;8.584;2024-03-25T00:20:54;3.70;;;0.50;;
66521;SDS011;53349;53.538;8.584;2024-03-25T00:23:20;5.10;;;1.00;;
66521;SDS011;53349;53.538;8.584;2024-03-25T00:25:45;2.87;;;0.60;;
66521;SDS011;53349;53.538;8.584;2024-03-25T00:28:10;2.92;;;0.70;;
66521;SDS011;53349;53.538;8.584;2024-03-25T00:30:36;5.18;;;0.77;;
66521;SDS011;53349;53.538;8.584;2024-03-25T00:33:01;3.10;;;0.57;;
66521;SDS011;53349;53.538;8.584;2024-03-25T00:35:27;4.90;;;0.73;;
66521;SDS011;53349;53.538;8.584;2024-03-25T00:37:52;2.07;;;0.40;;
66521;SDS011;53349;53.538;8.584;2024-03-25T00:40:17;4.33;;;0.60;;
66521;SDS011;53349;53.538;8.584;2024-03-25T00:42:43;3.03;;;0.70;;
66521;SDS011;53349;53.538;8.584;2024-03-25T00:45:08;7.37;;;0.87;;
66521;SDS011;53349;53.538;8.584;2024-03-25T00:47:34;5.50;;;0.90;;
66521;SDS011;53349;53.538;8.584;2024-03-25T00:49:59;5.90;;;0.80;;
66521;SDS011;53349;53.538;8.584;2024-03-25T00:52:25;6.70;;;1.00;;
66521;SDS011;53349;53.538;8.584;2024-03-25T00:54:50;6.27;;;0.90;;
66521;SDS011;53349;53.538;8.584;2024-03-25T00:57:15;7.72;;;0.93;;
66521;SDS011;53349;53.538;8.584;2024-03-25T00:59:41;6.20;;;0.77;;
66521;SDS011;53349;53.538;8.584;2024-03-25T01:02:07;5.47;;;0.83;;
66521;SDS011;53349;53.538;8.584;2024-03-25T01:04:32;3.67;;;0.63;;
66521;SDS011;53349;53.538;8.584;2024-03-25T01:06:58;5.90;;;0.73;;
66521;SDS011;53349;53.538;8.584;2024-03-25T01:09:23;8.07;;;0.93;;
66521;SDS011;53349;53.538;8.584;2024-03-25T01:11:48;6.57;;;0.97;;
66521;SDS011;53349;53.538;8.584;2024-03-25T01:14:14;8.00;;;1.27;;
66521;SDS011;53349;53.538;8.584;2024-03-25T01:16:39;6.83;;;0.67;;
66521;SDS011;53349;53.538;8.584;2024-03-25T01:19:05;6.10;;;0.95;;
66521;SDS011;53349;53.538;8.584;2024-03-25T01:21:30;7.97;;;1.10;;
66521;SDS011;53349;53.538;8.584;2024-03-25T01:23:55;4.33;;;0.80;;
66521;SDS011;53349;53.538;8.584;2024-03-25T01:26:21;7.83;;;1.13;;
66521;SDS011;53349;53.538;8.584;2024-03-25T01:28:46;5.00;;;1.00;;
66521;SDS011;53349;53.538;8.584;2024-03-25T01:31:12;6.90;;;0.80;;
66521;SDS011;53349;53.538;8.584;2024-03-25T01:33:37;6.32;;;0.90;;
66521;SDS011;53349;53.538;8.584;2024-03-25T01:36:02;5.13;;;0.83;;
66521;SDS011;53349;53.538;8.584;2024-03-25T01:38:28;6.73;;;1.33;;
66521;SDS011;53349;53.538;8.584;2024-03-25T01:40:53;5.67;;;0.90;;
66521;SDS011;53349;53.538;8.584;2024-03-25T01:43:19;3.70;;;1.13;;
66521;SDS011;53349;53.538;8.584;2024-03-25T01:45:44;9.15;;;0.90;;
66521;SDS011;53349;53.538;8.584;2024-03-25T01:48:10;4.87;;;0.80;;
66521;SDS011;53349;53.538;8.584;2024-03-25T01:50:37;5.03;;;0.73;;
66521;SDS011;53349;53.538;8.584;2024-03-25T01:53:05;7.80;;;0.68;;
66521;SDS011;53349;53.538;8.584;2024-03-25T01:55:32;3.33;;;0.80;;
66521;SDS011;53349;53.538;8.584;2024-03-25T01:57:59;3.97;;;0.73;;
66521;SDS011;53349;53.538;8.584;2024-03-25T02:00:25;4.32;;;1.00;;
66521;SDS011;53349;53.538;8.584;2024-03-25T02:02:51;2.80;;;0.60;;
66521;SDS011;53349;53.538;8.584;2024-03-25T02:05:18;3.35;;;0.80;;
66521;SDS011;53349;53.538;8.584;2024-03-25T02:07:44;3.47;;;0.70;;
66521;SDS011;53349;53.538;8.584;2024-03-25T02:10:10;3.88;;;0.57;;
66521;SDS011;53349;53.538;8.584;2024-03-25T02:12:36;2.45;;;0.60;;
66521;SDS011;53349;53.538;8.584;2024-03-25T02:15:02;4.73;;;0.77;;
66521;SDS011;53349;53.538;8.584;2024-03-25T02:17:29;8.00;;;0.93;;
66521;SDS011;53349;53.538;8.584;2024-03-25T02:19:55;6.77;;;0.80;;
66521;SDS011;53349;53.538;8.584;2024-03-25T02:22:20;4.03;;;0.80;;
66521;SDS011;53349;53.538;8.584;2024-03-25T02:24:45;3.42;;;0.70;;
66521;SDS011;53349;53.538;8.584;2024-03-25T02:27:13;3.40;;;0.73;;
66521;SDS011;53349;53.538;8.584;2024-03-25T02:29:38;7.32;;;0.93;;
66521;SDS011;53349;53.538;8.584;2024-03-25T02:32:04;4.13;;;0.82;;
66521;SDS011;53349;53.538;8.584;2024-03-25T02:34:29;2.20;;;0.50;;
66521;SDS011;53349;53.538;8.584;2024-03-25T02:36:55;5.13;;;0.63;;
66521;SDS011;53349;53.538;8.584;2024-03-25T02:39:20;4.17;;;0.80;;
66521;SDS011;53349;53.538;8.584;2024-03-25T02:41:46;4.18;;;0.82;;
66521;SDS011;53349;53.538;8.584;2024-03-25T02:44:11;5.78;;;1.25;;
66521;SDS011;53349;53.538;8.584;2024-03-25T02:46:39;4.80;;;0.70;;
66521;SDS011;53349;53.538;8.584;2024-03-25T02:49:05;4.88;;;1.25;;
66521;SDS011;53349;53.538;8.584;2024-03-25T02:51:30;4.10;;;0.90;;
66521;SDS011;53349;53.538;8.584;2024-03-25T02:53:55;3.50;;;0.77;;
66521;SDS011;53349;53.538;8.584;2024-03-25T02:56:21;4.45;;;0.82;;
66521;SDS011;53349;53.538;8.584;2024-03-25T02:58:46;6.33;;;1.13;;
66521;SDS011;53349;53.538;8.584;2024-03-25T03:01:11;5.40;;;0.90;;
66521;SDS011;53349;53.538;8.584;2024-03-25T03:03:37;3.73;;;0.83;;
66521;SDS011;53349;53.538;8.584;2024-03-25T03:06:02;7.70;;;1.57;;
66521;SDS011;53349;53.538;8.584;2024-03-25T03:08:27;5.47;;;1.57;;
66521;SDS011;53349;53.538;8.584;2024-03-25T03:10:53;7.27;;;1.60;;
66521;SDS011;53349;53.538;8.584;2024-03-25T03:13:18;6.88;;;1.90;;
66521;SDS011;53349;53.538;8.584;2024-03-25T03:15:44;6.57;;;2.13;;
66521;SDS011;53349;53.538;8.584;2024-03-25T03:18:09;6.60;;;2.10;;
66521;SDS011;53349;53.538;8.584;2024-03-25T03:20:35;6.88;;;2.15;;
66521;SDS011;53349;53.538;8.584;2024-03-25T03:23:00;6.17;;;2.10;;
66521;SDS011;53349;53.538;8.584;2024-03-25T03:25:26;5.60;;;2.43;;
66521;SDS011;53349;53.538;8.584;2024-03-25T03:27:51;8.17;;;2.30;;
66521;SDS011;53349;53.538;8.584;2024-03-25T03:30:16;6.27;;;2.00;;
66521;SDS011;53349;53.538;8.584;2024-03-25T03:32:42;8.63;;;2.13;;
66521;SDS011;53349;53.538;8.584;2024-03-25T03:35:07;6.87;;;2.20;;
66521;SDS011;53349;53.538;8.584;2024-03-25T03:37:33;5.43;;;1.55;;
66521;SDS011;53349;53.538;8.584;2024-03-25T03:39:58;13.10;;;2.47;;
66521;SDS011;53349;53.538;8.584;2024-03-25T03:42:23;9.40;;;2.37;;
66521;SDS011;53349;53.538;8.584;2024-03-25T03:44:49;8.40;;;1.80;;
66521;SDS011;53349;53.538;8.584;2024-03-25T03:47:14;6.90;;;1.63;;
66521;SDS011;53349;53.538;8.584;2024-03-25T03:49:39;11.87;;;2.00;;
66521;SDS011;53349;53.538;8.584;2024-03-25T03:52:05;7.53;;;1.90;;
66521;SDS011;53349;53.538;8.584;2024-03-25T03:54:30;7.15;;;1.80;;
66521;SDS011;53349;53.538;8.584;2024-03-25T03:56:55;9.00;;;2.30;;
66521;SDS011;53349;53.538;8.584;2024-03-25T03:59:21;6.33;;;1.80;;
66521;SDS011;53349;53.538;8.584;2024-03-25T04:01:46;6.67;;;1.80;;
66521;SDS011;53349;53.538;8.584;2024-03-25T04:04:12;11.93;;;2.17;;
66521;SDS011;53349;53.538;8.584;2024-03-25T04:06:37;8.60;;;1.90;;
66521;SDS011;53349;53.538;8.584;2024-03-25T04:09:02;6.80;;;1.83;;
66521;SDS011;53349;53.538;8.584;2024-03-25T04:11:27;7.47;;;1.40;;
66521;SDS011;53349;53.538;8.584;2024-03-25T04:13:53;6.30;;;1.33;;
66521;SDS011;53349;53.538;8.584;2024-03-25T04:16:18;10.53;;;1.80;;
66521;SDS011;53349;53.538;8.584;2024-03-25T04:18:43;6.00;;;1.50;;
66521;SDS011;53349;53.538;8.584;2024-03-25T04:21:12;8.00;;;1.67;;
66521;SDS011;53349;53.538;8.584;2024-03-25T04:23:37;7.03;;;1.25;;
66521;SDS011;53349;53.538;8.584;2024-03-25T04:26:03;8.10;;;1.27;;
66521;SDS011;53349;53.538;8.584;2024-03-25T04:28:28;8.43;;;1.87;;
66521;SDS011;53349;53.538;8.584;2024-03-25T04:30:53;5.20;;;1.50;;
66521;SDS011;53349;53.538;8.584;2024-03-25T04:33:19;8.23;;;1.58;;
66521;SDS011;53349;53.538;8.584;2024-03-25T04:35:45;7.07;;;1.60;;
66521;SDS011;53349;53.538;8.584;2024-03-25T04:38:11;7.43;;;1.87;;
66521;SDS011;53349;53.538;8.584;2024-03-25T04:40:36;6.35;;;1.40;;
66521;SDS011;53349;53.538;8.584;2024-03-25T04:43:01;5.90;;;1.50;;
66521;SDS011;53349;53.538;8.584;2024-03-25T04:45:27;9.13;;;1.30;;
66521;SDS011;53349;53.538;8.584;2024-03-25T04:47:52;10.70;;;1.63;;
66521;SDS011;53349;53.538;8.584;2024-03-25T04:50:17;6.20;;;1.17;;
66521;SDS011;53349;53.538;8.584;2024-03-25T04:52:43;4.83;;;1.17;;
66521;SDS011;53349;53.538;8.584;2024-03-25T04:55:08;8.93;;;1.70;;
66521;SDS011;53349;53.538;8.584;2024-03-25T04:57:33;6.13;;;1.20;;
66521;SDS011;53349;53.538;8.584;2024-03-25T04:59:59;7.53;;;1.87;;
66521;SDS011;53349;53.538;8.584;2024-03-25T05:02:24;8.93;;;1.50;;
66521;SDS011;53349;53.538;8.584;2024-03-25T05:04:49;7.63;;;1.63;;
66521;SDS011;53349;53.538;8.584;2024-03-25T05:07:15;7.60;;;1.50;;
66521;SDS011;53349;53.538;8.584;2024-03-25T05:09:40;6.87;;;1.67;;
66521;SDS011;53349;53.538;8.584;2024-03-25T05:12:06;9.07;;;1.53;;
66521;SDS011;53349;53.538;8.584;2024-03-25T05:14:31;12.65;;;1.40;;
66521;SDS011;53349;53.538;8.584;2024-03-25T05:16:56;6.33;;;1.27;;
66521;SDS011;53349;53.538;8.584;2024-03-25T05:19:22;6.67;;;1.13;;
66521;SDS011;53349;53.538;8.584;2024-03-25T05:21:47;8.03;;;1.30;;
66521;SDS011;53349;53.538;8.584;2024-03-25T05:24:12;6.27;;;1.23;;
66521;SDS011;53349;53.538;8.584;2024-03-25T05:26:38;6.63;;;1.47;;
66521;SDS011;53349;53.538;8.584;2024-03-25T05:29:03;7.70;;;1.50;;
66521;SDS011;53349;53.538;8.584;2024-03-25T05:31:28;8.75;;;1.70;;
66521;SDS011;53349;53.538;8.584;2024-03-25T05:33:54;10.65;;;1.45;;
66521;SDS011;53349;53.538;8.584;2024-03-25T05:36:19;7.53;;;1.33;;
66521;SDS011;53349;53.538;8.584;2024-03-25T05:38:45;5.63;;;0.90;;
66521;SDS011;53349;53.538;8.584;2024-03-25T05:41:10;4.73;;;1.10;;
66521;SDS011;53349;53.538;8.584;2024-03-25T05:43:36;7.55;;;1.17;;
66521;SDS011;53349;53.538;8.584;2024-03-25T05:46:02;9.98;;;1.50;;
66521;SDS011;53349;53.538;8.584;2024-03-25T05:48:27;7.25;;;1.02;;
66521;SDS011;53349;53.538;8.584;2024-03-25T05:53:27;7.57;;;1.35;;
66521;SDS011;53349;53.538;8.584;2024-03-25T05:55:53;10.73;;;1.37;;
66521;SDS011;53349;53.538;8.584;2024-03-25T05:58:18;11.68;;;1.73;;
66521;SDS011;53349;53.538;8.584;2024-03-25T06:00:46;10.17;;;1.70;;
66521;SDS011;53349;53.538;8.584;2024-03-25T06:03:13;10.70;;;1.83;;
66521;SDS011;53349;53.538;8.584;2024-03-25T06:05:39;9.67;;;2.00;;
66521;SDS011;53349;53.538;8.584;2024-03-25T06:08:05;8.10;;;1.60;;
66521;SDS011;53349;53.538;8.584;2024-03-25T06:10:35;7.67;;;1.80;;
66521;SDS011;53349;53.538;8.584;2024-03-25T06:13:01;9.57;;;1.65;;
66521;SDS011;53349;53.538;8.584;2024-03-25T06:15:26;12.40;;;1.90;;
66521;SDS011;53349;53.538;8.584;2024-03-25T06:17:52;7.00;;;2.00;;
66521;SDS011;53349;53.538;8.584;2024-03-25T06:20:17;8.45;;;1.70;;
66521;SDS011;53349;53.538;8.584;2024-03-25T06:22:42;11.60;;;1.65;;
66521;SDS011;53349;53.538;8.584;2024-03-25T06:25:08;8.03;;;1.27;;
66521;SDS011;53349;53.538;8.584;2024-03-25T06:27:33;9.30;;;1.50;;
66521;SDS011;53349;53.538;8.584;2024-03-25T06:29:58;10.87;;;1.90;;
66521;SDS011;53349;53.538;8.584;2024-03-25T06:32:25;9.43;;;1.77;;
66521;SDS011;53349;53.538;8.584;2024-03-25T06:34:50;8.10;;;2.05;;
66521;SDS011;53349;53.538;8.584;2024-03-25T06:37:15;9.43;;;1.40;;
66521;SDS011;53349;53.538;8.584;2024-03-25T06:39:41;6.97;;;1.30;;
66521;SDS011;53349;53.538;8.584;2024-03-25T06:42:06;7.80;;;1.33;;
66521;SDS011;53349;53.538;8.584;2024-03-25T06:44:31;10.63;;;1.27;;
66521;SDS011;53349;53.538;8.584;2024-03-25T06:46:57;9.37;;;1.23;;
66521;SDS011;53349;53.538;8.584;2024-03-25T06:49:22;11.30;;;1.60;;
66521;SDS011;53349;53.538;8.584;2024-03-25T06:51:47;10.85;;;1.52;;
66521;SDS011;53349;53.538;8.584;2024-03-25T06:54:13;10.27;;;1.70;;
66521;SDS011;53349;53.538;8.584;2024-03-25T06:56:38;7.23;;;1.30;;
66521;SDS011;53349;53.538;8.584;2024-03-25T06:59:03;6.67;;;1.83;;
66521;SDS011;53349;53.538;8.584;2024-03-25T07:01:30;10.82;;;2.10;;
66521;SDS011;53349;53.538;8.584;2024-03-25T07:03:55;7.77;;;1.67;;
66521;SDS011;53349;53.538;8.584;2024-03-25T07:06:21;6.47;;;1.27;;
66521;SDS011;53349;53.538;8.584;2024-03-25T07:08:46;10.03;;;1.50;;
66521;SDS011;53349;53.538;8.584;2024-03-25T07:11:11;12.23;;;2.70;;
66521;SDS011;53349;53.538;8.584;2024-03-25T07:13:37;7.43;;;2.20;;
66521;SDS011;53349;53.538;8.584;2024-03-25T07:16:02;9.10;;;1.23;;
66521;SDS011;53349;53.538;8.584;2024-03-25T07:18:28;8.95;;;1.13;;
66521;SDS011;53349;53.538;8.584;2024-03-25T07:20:54;8.00;;;1.33;;
66521;SDS011;53349;53.538;8.584;2024-03-25T07:23:19;9.15;;;1.30;;
66521;SDS011;53349;53.538;8.584;2024-03-25T07:25:44;9.88;;;1.30;;
66521;SDS011;53349;53.538;8.584;2024-03-25T07:28:10;10.70;;;1.63;;
66521;SDS011;53349;53.538;8.584;2024-03-25T07:30:35;11.17;;;1.70;;
66521;SDS011;53349;53.538;8.584;2024-03-25T07:33:00;7.80;;;1.70;;
66521;SDS011;53349;53.538;8.584;2024-03-25T07:35:26;6.33;;;1.40;;
66521;SDS011;53349;53.538;8.584;2024-03-25T07:37:51;5.40;;;1.50;;
66521;SDS011;53349;53.538;8.584;2024-03-25T07:40:20;10.55;;;1.67;;
66521;SDS011;53349;53.538;8.584;2024-03-25T07:42:47;9.07;;;1.17;;
66521;SDS011;53349;53.538;8.584;2024-03-25T07:45:13;4.80;;;1.23;;
66521;SDS011;53349;53.538;8.584;2024-03-25T07:47:38;7.65;;;1.33;;
66521;SDS011;53349;53.538;8.584;2024-03-25T07:50:03;6.10;;;0.90;;
66521;SDS011;53349;53.538;8.584;2024-03-25T07:52:29;6.53;;;1.17;;
66521;SDS011;53349;53.538;8.584;2024-03-25T07:54:55;8.60;;;1.33;;
66521;SDS011;53349;53.538;8.584;2024-03-25T07:57:20;6.43;;;0.90;;
66521;SDS011;53349;53.538;8.584;2024-03-25T07:59:46;10.27;;;1.30;;
66521;SDS011;53349;53.538;8.584;2024-03-25T08:02:11;7.80;;;1.10;;
66521;SDS011;53349;53.538;8.584;2024-03-25T08:04:37;7.57;;;2.08;;
66521;SDS011;53349;53.538;8.584;2024-03-25T08:07:03;8.73;;;1.20;;
66521;SDS011;53349;53.538;8.584;2024-03-25T08:09:28;9.30;;;1.40;;
66521;SDS011;53349;53.538;8.584;2024-03-25T08:11:54;8.40;;;0.83;;
66521;SDS011;53349;53.538;8.584;2024-03-25T08:14:19;9.23;;;2.00;;
66521;SDS011;53349;53.538;8.584;2024-03-25T08:16:45;7.72;;;1.38;;
66521;SDS011;53349;53.538;8.584;2024-03-25T08:19:10;9.30;;;1.30;;
66521;SDS011;53349;53.538;8.584;2024-03-25T08:21:37;9.27;;;1.30;;
66521;SDS011;53349;53.538;8.584;2024-03-25T08:24:02;8.95;;;1.00;;
66521;SDS011;53349;53.538;8.584;2024-03-25T08:26:28;10.57;;;1.43;;
66521;SDS011;53349;53.538;8.584;2024-03-25T08:28:53;8.63;;;1.10;;
66521;SDS011;53349;53.538;8.584;2024-03-25T08:31:18;9.37;;;1.50;;
66521;SDS011;53349;53.538;8.584;2024-03-25T08:33:44;8.87;;;1.57;;
66521;SDS011;53349;53.538;8.584;2024-03-25T08:36:09;6.60;;;1.40;;
66521;SDS011;53349;53.538;8.584;2024-03-25T08:38:35;10.57;;;1.80;;
66521;SDS011;53349;53.538;8.584;2024-03-25T08:41:00;6.93;;;1.13;;
66521;SDS011;53349;53.538;8.584;2024-03-25T08:43:25;6.67;;;1.20;;
66521;SDS011;53349;53.538;8.584;2024-03-25T08:45:51;5.93;;;1.20;;
66521;SDS011;53349;53.538;8.584;2024-03-25T08:48:16;7.13;;;1.37;;
66521;SDS011;53349;53.538;8.584;2024-03-25T08:50:41;8.50;;;1.23;;
66521;SDS011;53349;53.538;8.584;2024-03-25T08:53:07;8.85;;;1.45;;
66521;SDS011;53349;53.538;8.584;2024-03-25T08:55:32;6.53;;;1.13;;
66521;SDS011;53349;53.538;8.584;2024-03-25T08:57:57;5.17;;;1.03;;
66521;SDS011;53349;53.538;8.584;2024-03-25T09:00:23;4.77;;;1.20;;
66521;SDS011;53349;53.538;8.584;2024-03-25T09:02:48;6.73;;;1.40;;
66521;SDS011;53349;53.538;8.584;2024-03-25T09:05:13;6.67;;;1.20;;
66521;SDS011;53349;53.538;8.584;2024-03-25T09:07:39;6.85;;;1.38;;
66521;SDS011;53349;53.538;8.584;2024-03-25T09:10:04;8.02;;;1.27;;
66521;SDS011;53349;53.538;8.584;2024-03-25T09:12:30;6.13;;;1.10;;
66521;SDS011;53349;53.538;8.584;2024-03-25T09:14:55;4.20;;;0.90;;
66521;SDS011;53349;53.538;8.584;2024-03-25T09:17:21;9.00;;;1.15;;
66521;SDS011;53349;53.538;8.584;2024-03-25T09:19:46;8.45;;;1.55;;
66521;SDS011;53349;53.538;8.584;2024-03-25T09:22:12;6.27;;;1.60;;
66521;SDS011;53349;53.538;8.584;2024-03-25T09:24:37;8.30;;;1.43;;
66521;SDS011;53349;53.538;8.584;2024-03-25T09:27:02;7.70;;;1.37;;
66521;SDS011;53349;53.538;8.584;2024-03-25T09:29:28;6.17;;;1.10;;
66521;SDS011;53349;53.538;8.584;2024-03-25T09:31:53;7.60;;;1.00;;
66521;SDS011;53349;53.538;8.584;2024-03-25T09:34:18;9.32;;;1.30;;
66521;SDS011;53349;53.538;8.584;2024-03-25T09:36:44;4.80;;;1.50;;
66521;SDS011;53349;53.538;8.584;2024-03-25T09:39:09;6.00;;;1.03;;
66521;SDS011;53349;53.538;8.584;2024-03-25T09:41:35;6.40;;;1.10;;
66521;SDS011;53349;53.538;8.584;2024-03-25T09:44:01;6.22;;;0.90;;
66521;SDS011;53349;53.538;8.584;2024-03-25T09:46:26;5.67;;;1.30;;
66521;SDS011;53349;53.538;8.584;2024-03-25T09:48:52;5.53;;;1.07;;
66521;SDS011;53349;53.538;8.584;2024-03-25T09:51:18;7.47;;;1.33;;
66521;SDS011;53349;53.538;8.584;2024-03-25T09:53:44;6.85;;;1.10;;
66521;SDS011;53349;53.538;8.584;2024-03-25T09:56:09;5.27;;;1.00;;
66521;SDS011;53349;53.538;8.584;2024-03-25T09:58:35;6.18;;;1.30;;
66521;SDS011;53349;53.538;8.584;2024-03-25T10:01:01;7.57;;;1.23;;
66521;SDS011;53349;53.538;8.584;2024-03-25T10:03:26;7.47;;;1.00;;
66521;SDS011;53349;53.538;8.584;2024-03-25T10:05:52;9.27;;;1.60;;
66521;SDS011;53349;53.538;8.584;2024-03-25T10:08:21;6.33;;;1.10;;
66521;SDS011;53349;53.538;8.584;2024-03-25T10:10:46;9.27;;;1.20;;
66521;SDS011;53349;53.538;8.584;2024-03-25T10:13:12;7.03;;;1.13;;
66521;SDS011;53349;53.538;8.584;2024-03-25T10:15:37;10.73;;;1.20;;
66521;SDS011;53349;53.538;8.584;2024-03-25T10:18:03;6.13;;;1.00;;
66521;SDS011;53349;53.538;8.584;2024-03-25T10:20:28;8.25;;;1.40;;
66521;SDS011;53349;53.538;8.584;2024-03-25T10:22:54;5.67;;;1.00;;
66521;SDS011;53349;53.538;8.584;2024-03-25T10:25:28;5.57;;;1.23;;
66521;SDS011;53349;53.538;8.584;2024-03-25T10:27:58;6.57;;;1.20;;
66521;SDS011;53349;53.538;8.584;2024-03-25T10:30:24;8.27;;;1.10;;
66521;SDS011;53349;53.538;8.584;2024-03-25T10:33:03;4.35;;;0.90;;
66521;SDS011;53349;53.538;8.584;2024-03-25T10:35:36;6.65;;;0.60;;
66521;SDS011;53349;53.538;8.584;2024-03-25T10:38:03;3.53;;;0.50;;
66521;SDS011;53349;53.538;8.584;2024-03-25T10:40:31;9.57;;;0.80;;
66521;SDS011;53349;53.538;8.584;2024-03-25T10:43:02;4.70;;;0.80;;
66521;SDS011;53349;53.538;8.584;2024-03-25T10:45:30;5.75;;;1.00;;
66521;SDS011;53349;53.538;8.584;2024-03-25T10:47:57;5.38;;;0.93;;
66521;SDS011;53349;53.538;8.584;2024-03-25T10:50:24;7.50;;;0.98;;
66521;SDS011;53349;53.538;8.584;2024-03-25T10:52:53;4.85;;;0.90;;
66521;SDS011;53349;53.538;8.584;2024-03-25T10:55:19;7.22;;;1.20;;
66521;SDS011;53349;53.538;8.584;2024-03-25T10:57:46;8.88;;;1.45;;
66521;SDS011;53349;53.538;8.584;2024-03-25T11:00:13;5.68;;;1.10;;
66521;SDS011;53349;53.538;8.584;2024-03-25T11:02:41;6.28;;;1.40;;
66521;SDS011;53349;53.538;8.584;2024-03-25T11:05:10;7.32;;;1.10;;
66521;SDS011;53349;53.538;8.584;2024-03-25T11:07:36;6.03;;;1.17;;
66521;SDS011;53349;53.538;8.584;2024-03-25T11:10:05;4.93;;;0.90;;
66521;SDS011;53349;53.538;8.584;2024-03-25T11:12:32;5.93;;;1.13;;
66521;SDS011;53349;53.538;8.584;2024-03-25T11:15:02;6.77;;;1.10;;
66521;SDS011;53349;53.538;8.584;2024-03-25T11:17:28;8.23;;;1.20;;
66521;SDS011;53349;53.538;8.584;2024-03-25T11:19:54;7.57;;;0.98;;
66521;SDS011;53349;53.538;8.584;2024-03-25T11:22:23;5.50;;;1.53;;
66521;SDS011;53349;53.538;8.584;2024-03-25T11:24:49;6.60;;;1.08;;
66521;SDS011;53349;53.538;8.584;2024-03-25T11:27:15;6.63;;;1.57;;
66521;SDS011;53349;53.538;8.584;2024-03-25T11:29:46;7.70;;;1.20;;
66521;SDS011;53349;53.538;8.584;2024-03-25T11:32:12;5.27;;;0.83;;
66521;SDS011;53349;53.538;8.584;2024-03-25T11:34:38;9.80;;;1.20;;
66521;SDS011;53349;53.538;8.584;2024-03-25T11:37:03;5.63;;;1.00;;
66521;SDS011;53349;53.538;8.584;2024-03-25T11:39:29;4.03;;;0.90;;
66521;SDS011;53349;53.538;8.584;2024-03-25T11:41:54;5.47;;;1.00;;
66521;SDS011;53349;53.538;8.584;2024-03-25T11:44:20;4.95;;;0.90;;
66521;SDS011;53349;53.538;8.584;2024-03-25T11:46:45;3.63;;;0.67;;
66521;SDS011;53349;53.538;8.584;2024-03-25T11:49:13;6.00;;;1.00;;
66521;SDS011;53349;53.538;8.584;2024-03-25T11:51:42;8.32;;;0.80;;
66521;SDS011;53349;53.538;8.584;2024-03-25T11:54:10;4.43;;;0.65;;
66521;SDS011;53349;53.538;8.584;2024-03-25T11:56:37;6.28;;;0.70;;
66521;SDS011;53349;53.538;8.584;2024-03-25T11:59:03;5.20;;;0.85;;
66521;SDS011;53349;53.538;8.584;2024-03-25T12:01:29;5.93;;;0.90;;
66521;SDS011;53349;53.538;8.584;2024-03-25T12:03:55;4.38;;;0.80;;
66521;SDS011;53349;53.538;8.584;2024-03-25T12:06:20;5.97;;;1.23;;
66521;SDS011;53349;53.538;8.584;2024-03-25T12:08:45;7.57;;;0.70;;
66521;SDS011;53349;53.538;8.584;2024-03-25T12:11:11;6.40;;;0.80;;
66521;SDS011;53349;53.538;8.584;2024-03-25T12:13:37;6.00;;;1.20;;
66521;SDS011;53349;53.538;8.584;2024-03-25T12:16:03;4.85;;;0.95;;
66521;SDS011;53349;53.538;8.584;2024-03-25T12:18:30;5.20;;;0.80;;
66521;SDS011;53349;53.538;8.584;2024-03-25T12:20:56;4.53;;;0.90;;
66521;SDS011;53349;53.538;8.584;2024-03-25T12:23:22;5.03;;;1.10;;
66521;SDS011;53349;53.538;8.584;2024-03-25T12:25:48;3.40;;;0.70;;
66521;SDS011;53349;53.538;8.584;2024-03-25T12:28:14;5.40;;;0.82;;
66521;SDS011;53349;53.538;8.584;2024-03-25T12:30:52;6.45;;;0.80;;
66521;SDS011;53349;53.538;8.584;2024-03-25T12:33:18;7.53;;;0.83;;
66521;SDS011;53349;53.538;8.584;2024-03-25T12:35:47;4.82;;;0.90;;
66521;SDS011;53349;53.538;8.584;2024-03-25T12:38:23;5.00;;;0.80;;
66521;SDS011;53349;53.538;8.584;2024-03-25T12:40:53;5.25;;;0.90;;
66521;SDS011;53349;53.538;8.584;2024-03-25T12:43:19;4.35;;;0.70;;
66521;SDS011;53349;53.538;8.584;2024-03-25T12:45:44;6.53;;;0.80;;
66521;SDS011;53349;53.538;8.584;2024-03-25T12:48:10;3.45;;;0.60;;
66521;SDS011;53349;53.538;8.584;2024-03-25T12:50:36;3.77;;;0.70;;
66521;SDS011;53349;53.538;8.584;2024-03-25T12:53:02;6.75;;;0.90;;
66521;SDS011;53349;53.538;8.584;2024-03-25T12:55:31;5.95;;;1.10;;
66521;SDS011;53349;53.538;8.584;2024-03-25T12:57:57;5.68;;;1.00;;
66521;SDS011;53349;53.538;8.584;2024-03-25T13:00:22;4.57;;;0.80;;
66521;SDS011;53349;53.538;8.584;2024-03-25T13:02:48;7.33;;;1.07;;
66521;SDS011;53349;53.538;8.584;2024-03-25T13:05:14;6.50;;;1.35;;
66521;SDS011;53349;53.538;8.584;2024-03-25T13:07:39;6.53;;;0.80;;
66521;SDS011;53349;53.538;8.584;2024-03-25T13:10:04;5.10;;;0.80;;
66521;SDS011;53349;53.538;8.584;2024-03-25T13:12:31;8.77;;;0.90;;
66521;SDS011;53349;53.538;8.584;2024-03-25T13:14:57;4.82;;;0.90;;
66521;SDS011;53349;53.538;8.584;2024-03-25T13:17:22;4.07;;;0.70;;
66521;SDS011;53349;53.538;8.584;2024-03-25T13:19:47;6.00;;;0.80;;
66521;SDS011;53349;53.538;8.584;2024-03-25T13:22:13;6.07;;;1.10;;
66521;SDS011;53349;53.538;8.584;2024-03-25T13:24:39;8.20;;;1.10;;
66521;SDS011;53349;53.538;8.584;2024-03-25T13:27:05;6.43;;;1.08;;
66521;SDS011;53349;53.538;8.584;2024-03-25T13:29:30;5.10;;;0.80;;
66521;SDS011;53349;53.538;8.584;2024-03-25T13:31:55;11.70;;;1.17;;
66521;SDS011;53349;53.538;8.584;2024-03-25T13:34:21;4.80;;;0.90;;
66521;SDS011;53349;53.538;8.584;2024-03-25T13:36:46;4.67;;;0.90;;
66521;SDS011;53349;53.538;8.584;2024-03-25T13:39:13;4.47;;;0.77;;
66521;SDS011;53349;53.538;8.584;2024-03-25T13:41:38;5.93;;;0.90;;
66521;SDS011;53349;53.538;8.584;2024-03-25T13:44:03;5.23;;;0.77;;
66521;SDS011;53349;53.538;8.584;2024-03-25T13:46:29;5.90;;;0.82;;
66521;SDS011;53349;53.538;8.584;2024-03-25T13:48:54;4.67;;;0.80;;
66521;SDS011;53349;53.538;8.584;2024-03-25T13:51:20;2.73;;;0.70;;
66521;SDS011;53349;53.538;8.584;2024-03-25T13:53:45;2.97;;;0.60;;
66521;SDS011;53349;53.538;8.584;2024-03-25T13:56:10;6.47;;;0.80;;
66521;SDS011;53349;53.538;8.584;2024-03-25T13:58:36;4.15;;;0.88;;
66521;SDS011;53349;53.538;8.584;2024-03-25T14:01:01;6.88;;;1.25;;
66521;SDS011;53349;53.538;8.584;2024-03-25T14:03:26;6.63;;;0.80;;
66521;SDS011;53349;53.538;8.584;2024-03-25T14:05:52;5.30;;;0.90;;
66521;SDS011;53349;53.538;8.584;2024-03-25T14:08:17;3.90;;;0.90;;
66521;SDS011;53349;53.538;8.584;2024-03-25T14:10:43;4.30;;;0.90;;
66521;SDS011;53349;53.538;8.584;2024-03-25T14:13:08;4.93;;;1.00;;
66521;SDS011;53349;53.538;8.584;2024-03-25T14:15:34;5.50;;;1.20;;
66521;SDS011;53349;53.538;8.584;2024-03-25T14:17:59;11.67;;;1.53;;
66521;SDS011;53349;53.538;8.584;2024-03-25T14:20:24;4.63;;;1.50;;
66521;SDS011;53349;53.538;8.584;2024-03-25T14:22:50;5.28;;;1.50;;
66521;SDS011;53349;53.538;8.584;2024-03-25T14:25:15;8.93;;;1.27;;
66521;SDS011;53349;53.538;8.584;2024-03-25T14:27:42;4.23;;;0.73;;
66521;SDS011;53349;53.538;8.584;2024-03-25T14:30:07;8.43;;;0.90;;
66521;SDS011;53349;53.538;8.584;2024-03-25T14:32:33;3.73;;;0.73;;
66521;SDS011;53349;53.538;8.584;2024-03-25T14:34:58;5.30;;;0.90;;
66521;SDS011;53349;53.538;8.584;2024-03-25T14:37:24;5.30;;;1.10;;
66521;SDS011;53349;53.538;8.584;2024-03-25T14:39:49;3.77;;;0.83;;